Weather at Foula Airfield

Public forecast

Using degrees Celsius for public forecast. Weather courtesy of forecast.io.

Closest aviation weather report (METAR) to Foula Airfield

Closest report is Sumburgh Airport, 27.0 nm (50.0 km) ESE.

2024/07/24 15:20 (retrieved 14 minutes ago)

EGPB 241520Z 14009KT 9999 FEW011 SCT043 15/11 Q1016

Closest aviation forecast (TAF) to Foula Airfield

Closest forecast is Gullfaks C Helipad, 143.1 nm (264.9 km) ENE.

2024/07/24 15:37 (retrieved 0 seconds ago)

TAF ENGC 241400Z 2415/2515 35008KT 9999 FEW015 PROB30 2416/2504 0100 FG VV001 BECMG 2501/2503 19010KT BECMG 2504/2508 16025KT TEMPO 2512/2515 SHRA BKN012 SCT020CB